createdAt,value
2018-09-29T00:00:41.838Z,13.32
2018-09-29T00:03:10.886Z,13.28
2018-09-29T00:05:40.320Z,13.22
2018-09-29T00:08:09.248Z,13.13
2018-09-29T00:10:38.162Z,13.13
2018-09-29T00:13:07.117Z,13.12
2018-09-29T00:15:36.026Z,13.04
2018-09-29T00:18:04.972Z,13.03
2018-09-29T00:20:33.926Z,13.01
2018-09-29T00:23:02.834Z,12.89
2018-09-29T00:25:31.751Z,12.89
2018-09-29T00:28:00.731Z,12.92
2018-09-29T00:30:29.635Z,12.92
2018-09-29T00:32:58.969Z,12.85
2018-09-29T00:35:27.896Z,12.84
2018-09-29T00:37:57.682Z,12.76
2018-09-29T00:40:26.609Z,12.71
2018-09-29T00:42:55.496Z,12.64
2018-09-29T00:45:24.420Z,12.58
2018-09-29T00:47:53.338Z,12.57
2018-09-29T00:50:22.310Z,12.49
2018-09-29T00:52:51.197Z,12.46
2018-09-29T00:55:20.107Z,12.39
2018-09-29T00:57:49.045Z,12.36
2018-09-29T01:00:17.948Z,12.29
2018-09-29T01:02:46.926Z,12.28
2018-09-29T01:05:15.832Z,12.27
2018-09-29T01:07:44.737Z,12.27
2018-09-29T01:10:13.639Z,12.25
2018-09-29T01:12:42.599Z,12.35
2018-09-29T01:15:11.528Z,12.38
2018-09-29T01:17:40.416Z,12.33
2018-09-29T01:20:09.383Z,12.34
2018-09-29T01:22:38.314Z,12.30
2018-09-29T01:25:07.391Z,12.29
2018-09-29T01:27:36.320Z,12.29
2018-09-29T01:30:05.324Z,12.34
2018-09-29T01:32:34.208Z,12.35
2018-09-29T01:35:03.264Z,12.45
2018-09-29T01:37:32.192Z,12.40
2018-09-29T01:40:01.123Z,12.46
2018-09-29T01:42:30.047Z,12.46
2018-09-29T01:44:58.943Z,12.41
2018-09-29T01:47:27.870Z,12.40
2018-09-29T01:49:56.775Z,12.37
2018-09-29T01:52:25.706Z,12.40
2018-09-29T01:54:55.591Z,12.42
2018-09-29T01:57:24.574Z,12.41
2018-09-29T01:59:53.559Z,12.42
2018-09-29T02:02:23.160Z,12.45
2018-09-29T02:04:53.400Z,12.36
2018-09-29T02:07:22.337Z,12.45
2018-09-29T02:09:51.682Z,12.45
2018-09-29T02:12:20.724Z,12.44
2018-09-29T02:14:49.771Z,12.47
2018-09-29T02:17:18.696Z,12.44
2018-09-29T02:19:47.619Z,12.46
2018-09-29T02:22:16.534Z,12.50
2018-09-29T02:24:45.508Z,12.59
2018-09-29T02:27:14.411Z,12.61
2018-09-29T02:29:43.295Z,12.64
2018-09-29T02:32:12.250Z,12.61
2018-09-29T02:34:41.139Z,12.65
2018-09-29T02:37:10.047Z,12.70
2018-09-29T02:39:38.956Z,12.78
2018-09-29T02:42:07.903Z,12.75
2018-09-29T02:44:36.800Z,12.75
2018-09-29T02:47:05.804Z,12.75
2018-09-29T02:49:34.735Z,12.76
2018-09-29T02:52:03.675Z,12.74
2018-09-29T02:54:32.584Z,12.77
2018-09-29T02:57:01.506Z,12.76
2018-09-29T02:59:30.415Z,12.81
2018-09-29T03:01:59.328Z,12.77
2018-09-29T03:04:28.227Z,12.78
2018-09-29T03:06:57.160Z,12.78
2018-09-29T03:09:26.142Z,12.79
2018-09-29T03:11:55.063Z,12.79
2018-09-29T03:14:24.004Z,12.83
2018-09-29T03:16:53.007Z,12.86
2018-09-29T03:19:21.966Z,12.88
2018-09-29T03:21:50.860Z,12.86
2018-09-29T03:24:19.817Z,12.87
2018-09-29T03:26:48.785Z,12.85
2018-09-29T03:29:17.675Z,12.81
2018-09-29T03:31:46.604Z,12.79
2018-09-29T03:34:15.524Z,12.76
2018-09-29T03:36:44.459Z,12.73
2018-09-29T03:39:13.831Z,12.71
2018-09-29T03:41:42.719Z,12.72
2018-09-29T03:44:11.654Z,12.71
2018-09-29T03:46:40.610Z,12.68
2018-09-29T03:49:09.511Z,12.61
2018-09-29T03:51:38.400Z,12.56
2018-09-29T03:54:07.410Z,12.53
2018-09-29T03:56:36.370Z,12.51
2018-09-29T03:59:05.352Z,12.44
2018-09-29T04:01:34.303Z,12.47
2018-09-29T04:04:03.209Z,12.46
2018-09-29T04:06:32.107Z,12.40
2018-09-29T04:09:01.088Z,12.37
2018-09-29T04:11:29.983Z,12.36
2018-09-29T04:13:58.956Z,12.35
2018-09-29T04:16:27.903Z,12.33
2018-09-29T04:18:56.794Z,12.36
2018-09-29T04:21:25.793Z,12.34
2018-09-29T04:23:54.719Z,12.25
2018-09-29T04:26:23.619Z,12.23
2018-09-29T04:28:52.547Z,12.20
2018-09-29T04:31:21.523Z,12.27
2018-09-29T04:33:50.468Z,12.50
2018-09-29T04:36:19.372Z,12.59
2018-09-29T04:38:48.326Z,12.60
2018-09-29T04:41:17.243Z,12.55
2018-09-29T04:43:46.214Z,12.50
2018-09-29T04:46:15.139Z,12.44
2018-09-29T04:48:44.090Z,12.48
2018-09-29T04:51:13.016Z,12.48
2018-09-29T04:53:41.933Z,12.48
2018-09-29T04:56:16.783Z,12.43
2018-09-29T04:58:48.428Z,12.34
2018-09-29T05:01:19.295Z,12.39
2018-09-29T05:03:48.814Z,12.40
2018-09-29T05:06:18.704Z,12.46
2018-09-29T05:08:47.608Z,12.48
2018-09-29T05:11:17.193Z,12.54
2018-09-29T05:13:47.018Z,12.59
2018-09-29T05:16:17.076Z,12.61
2018-09-29T05:18:46.208Z,12.50
2018-09-29T05:21:15.119Z,12.54
2018-09-29T05:23:44.171Z,12.63
2018-09-29T05:26:13.083Z,12.71
2018-09-29T05:28:42.051Z,12.81
2018-09-29T05:31:10.963Z,12.85
2018-09-29T05:33:39.888Z,12.88
2018-09-29T05:36:09.495Z,12.96
2018-09-29T05:38:38.391Z,12.95
2018-09-29T05:41:07.379Z,13.02
2018-09-29T05:43:36.353Z,12.76
2018-09-29T05:46:05.351Z,12.62
2018-09-29T05:48:34.287Z,12.90
2018-09-29T05:51:03.521Z,13.16
2018-09-29T05:53:32.526Z,13.36
2018-09-29T05:56:01.647Z,13.41
2018-09-29T05:58:30.636Z,13.64
2018-09-29T06:00:59.661Z,13.74
2018-09-29T06:03:29.388Z,13.61
2018-09-29T06:05:58.310Z,13.50
2018-09-29T06:08:28.673Z,13.26
2018-09-29T06:10:57.618Z,13.42
2018-09-29T06:13:27.279Z,13.59
2018-09-29T06:15:56.378Z,13.69
2018-09-29T06:18:25.982Z,13.73
2018-09-29T06:20:54.949Z,13.74
2018-09-29T06:23:25.819Z,13.87
2018-09-29T06:25:55.356Z,14.15
2018-09-29T06:28:24.227Z,14.33
2018-09-29T06:30:54.971Z,14.39
2018-09-29T06:33:23.895Z,14.64
2018-09-29T06:35:52.845Z,14.84
2018-09-29T06:38:21.827Z,14.92
2018-09-29T06:40:50.807Z,15.04
2018-09-29T06:43:19.711Z,15.18
2018-09-29T06:45:49.623Z,14.99
2018-09-29T06:48:18.533Z,15.07
2018-09-29T06:50:47.433Z,15.16
2018-09-29T06:53:16.354Z,15.12
2018-09-29T06:55:45.311Z,15.10
2018-09-29T06:58:14.283Z,15.27
2018-09-29T07:00:43.186Z,15.37
2018-09-29T07:03:12.103Z,15.50
2018-09-29T07:05:41.005Z,15.60
2018-09-29T07:08:09.928Z,15.54
2018-09-29T07:10:39.596Z,15.49
2018-09-29T07:13:08.516Z,15.60
2018-09-29T07:15:37.452Z,15.58
2018-09-29T07:18:06.435Z,15.74
2018-09-29T07:20:35.543Z,15.80
2018-09-29T07:23:04.447Z,15.90
2018-09-29T07:25:33.367Z,15.94
2018-09-29T07:28:02.285Z,15.92
2018-09-29T07:30:32.215Z,15.99
2018-09-29T07:33:01.723Z,16.09
2018-09-29T07:35:31.306Z,16.19
2018-09-29T07:38:00.267Z,16.15
2018-09-29T07:40:29.231Z,15.90
2018-09-29T07:42:59.946Z,15.82
2018-09-29T07:45:29.620Z,15.88
2018-09-29T07:47:58.547Z,16.02
2018-09-29T07:50:27.455Z,16.08
2018-09-29T07:52:56.948Z,16.10
2018-09-29T07:55:25.876Z,16.26
2018-09-29T07:57:54.787Z,16.24
2018-09-29T08:00:23.715Z,16.37
2018-09-29T08:02:54.400Z,16.52
2018-09-29T08:05:23.382Z,16.52
2018-09-29T08:07:52.277Z,16.53
2018-09-29T08:10:21.179Z,16.56
2018-09-29T08:12:50.100Z,16.54
2018-09-29T08:15:19.071Z,16.73
2018-09-29T08:17:48.015Z,16.77
2018-09-29T08:20:16.958Z,16.82
2018-09-29T08:22:45.903Z,16.77
2018-09-29T08:25:14.812Z,16.75
2018-09-29T08:27:43.775Z,16.65
2018-09-29T08:30:12.672Z,16.60
2018-09-29T08:32:41.695Z,16.79
2018-09-29T08:35:10.659Z,16.86
2018-09-29T08:37:39.596Z,16.97
2018-09-29T08:40:08.529Z,16.99
2018-09-29T08:42:37.440Z,17.06
2018-09-29T08:45:06.535Z,16.86
2018-09-29T08:47:35.427Z,16.96
2018-09-29T08:50:04.479Z,17.06
2018-09-29T08:52:33.392Z,17.18
2018-09-29T08:55:02.353Z,17.23
2018-09-29T08:57:31.297Z,17.28
2018-09-29T09:00:00.201Z,17.32
2018-09-29T09:02:29.137Z,17.31
2018-09-29T09:04:58.076Z,17.18
2018-09-29T09:07:27.060Z,17.19
2018-09-29T09:09:56.012Z,17.19
2018-09-29T09:12:24.899Z,17.28
2018-09-29T09:14:53.820Z,17.28
2018-09-29T09:17:22.721Z,17.32
2018-09-29T09:19:51.651Z,17.39
2018-09-29T09:22:20.625Z,17.45
2018-09-29T09:24:49.591Z,17.21
2018-09-29T09:27:18.482Z,17.32
2018-09-29T09:29:47.497Z,17.37
2018-09-29T09:32:16.412Z,17.26
2018-09-29T09:34:45.342Z,17.42
2018-09-29T09:37:14.259Z,17.53
2018-09-29T09:39:43.705Z,17.62
2018-09-29T09:42:12.623Z,17.71
2018-09-29T09:44:41.548Z,17.84
2018-09-29T09:47:10.459Z,17.97
2018-09-29T09:49:39.367Z,18.08
2018-09-29T09:52:08.339Z,18.16
2018-09-29T09:54:37.893Z,18.25
2018-09-29T09:57:07.264Z,18.36
2018-09-29T09:59:36.193Z,18.25
2018-09-29T10:02:10.311Z,18.46
2018-09-29T10:04:39.262Z,18.63
2018-09-29T10:07:08.637Z,18.56
2018-09-29T10:09:38.147Z,18.73
2018-09-29T10:12:07.267Z,18.86
2018-09-29T10:14:36.211Z,18.91
2018-09-29T10:17:05.114Z,18.95
2018-09-29T10:19:34.082Z,19.04
2018-09-29T10:22:03.028Z,19.14
2018-09-29T10:24:31.924Z,19.21
2018-09-29T10:27:00.829Z,19.25
2018-09-29T10:29:29.727Z,19.34
2018-09-29T10:31:58.644Z,19.27
2018-09-29T10:34:27.515Z,19.32
2018-09-29T10:36:56.434Z,19.37
2018-09-29T10:39:25.358Z,19.37
2018-09-29T10:41:54.310Z,19.48
2018-09-29T10:44:23.206Z,19.51
2018-09-29T10:46:52.126Z,19.65
2018-09-29T10:49:21.049Z,19.72
2018-09-29T10:51:49.934Z,19.62
2018-09-29T10:54:18.830Z,19.68
2018-09-29T10:56:47.760Z,19.69
2018-09-29T10:59:16.787Z,19.68
2018-09-29T11:01:45.672Z,19.62
2018-09-29T11:04:14.563Z,19.72
2018-09-29T11:06:43.499Z,19.72
2018-09-29T11:09:12.651Z,19.78
2018-09-29T11:11:41.572Z,19.77
2018-09-29T11:14:10.459Z,19.74
2018-09-29T11:16:39.422Z,19.65
2018-09-29T11:19:08.307Z,19.66
2018-09-29T11:21:37.209Z,19.58
2018-09-29T11:24:06.359Z,19.67
2018-09-29T11:26:35.323Z,19.65
2018-09-29T11:29:04.306Z,19.60
2018-09-29T11:31:33.247Z,19.65
2018-09-29T11:34:02.180Z,19.66
2018-09-29T11:36:31.115Z,19.82
2018-09-29T11:39:00.148Z,19.69
2018-09-29T11:41:29.068Z,19.69
2018-09-29T11:43:57.962Z,19.81
2018-09-29T11:46:26.871Z,19.74
2018-09-29T11:48:55.767Z,19.87
2018-09-29T11:51:24.707Z,19.83
2018-09-29T11:53:53.636Z,19.86
2018-09-29T11:56:22.732Z,19.77
2018-09-29T11:58:51.648Z,19.89
2018-09-29T12:01:20.650Z,19.89
2018-09-29T12:03:49.568Z,19.84
2018-09-29T12:06:18.571Z,19.90
2018-09-29T12:08:47.584Z,19.92
2018-09-29T12:11:16.540Z,20.02
2018-09-29T12:13:46.102Z,19.99
2018-09-29T12:16:15.047Z,20.08
2018-09-29T12:18:43.983Z,20.15
2018-09-29T12:21:12.891Z,20.21
2018-09-29T12:23:41.880Z,20.24
2018-09-29T12:26:10.788Z,20.22
2018-09-29T12:28:39.687Z,20.27
2018-09-29T12:31:08.696Z,20.28
2018-09-29T12:33:37.563Z,20.32
2018-09-29T12:36:06.514Z,20.46
2018-09-29T12:38:35.476Z,20.42
2018-09-29T12:41:04.459Z,20.41
2018-09-29T12:43:33.488Z,20.39
2018-09-29T12:46:02.556Z,20.31
2018-09-29T12:48:31.615Z,20.35
2018-09-29T12:51:00.923Z,20.30
2018-09-29T12:53:29.902Z,20.34
2018-09-29T12:55:58.839Z,20.26
2018-09-29T12:58:27.798Z,20.29
2018-09-29T13:00:56.737Z,20.16
2018-09-29T13:03:25.741Z,20.24
2018-09-29T13:05:54.706Z,20.22
2018-09-29T13:08:23.750Z,20.25
2018-09-29T13:10:52.714Z,20.30
2018-09-29T13:13:21.665Z,20.23
2018-09-29T13:15:51.764Z,20.20
2018-09-29T13:18:20.694Z,20.19
2018-09-29T13:20:49.655Z,20.20
2018-09-29T13:23:18.655Z,20.09
2018-09-29T13:25:47.619Z,20.09
2018-09-29T13:28:16.555Z,20.11
2018-09-29T13:30:45.654Z,20.17
2018-09-29T13:33:14.563Z,20.16
2018-09-29T13:35:43.527Z,20.13
2018-09-29T13:38:12.460Z,20.16
2018-09-29T13:40:41.386Z,20.12
2018-09-29T13:43:10.315Z,20.09
2018-09-29T13:45:39.291Z,20.11
2018-09-29T13:48:08.541Z,20.14
2018-09-29T13:50:37.496Z,20.15
2018-09-29T13:53:06.832Z,20.14
2018-09-29T13:55:35.809Z,20.13
2018-09-29T13:58:04.755Z,20.12
2018-09-29T14:00:33.688Z,20.11
2018-09-29T14:03:02.603Z,20.19
2018-09-29T14:05:31.543Z,20.22
2018-09-29T14:08:00.452Z,20.28
2018-09-29T14:10:29.395Z,20.28
2018-09-29T14:12:58.348Z,20.31
2018-09-29T14:15:27.345Z,20.29
2018-09-29T14:17:56.276Z,20.36
2018-09-29T14:20:25.220Z,20.29
2018-09-29T14:22:54.141Z,20.30
2018-09-29T14:25:23.031Z,20.20
2018-09-29T14:27:52.007Z,20.20
2018-09-29T14:30:20.985Z,20.27
2018-09-29T14:32:49.972Z,20.28
2018-09-29T14:35:18.912Z,20.27
2018-09-29T14:37:47.894Z,20.25
2018-09-29T14:40:16.816Z,20.27
2018-09-29T14:42:45.733Z,20.35
2018-09-29T14:45:14.743Z,20.33
2018-09-29T14:47:43.831Z,20.28
2018-09-29T14:50:12.813Z,20.28
2018-09-29T14:52:41.776Z,20.24
2018-09-29T14:55:10.701Z,20.25
2018-09-29T14:57:39.671Z,20.23
2018-09-29T15:00:08.728Z,20.21
2018-09-29T15:02:37.639Z,20.21
2018-09-29T15:05:06.594Z,20.18
2018-09-29T15:07:35.520Z,20.15
2018-09-29T15:10:04.601Z,20.16
2018-09-29T15:12:33.556Z,20.12
2018-09-29T15:15:02.600Z,20.07
2018-09-29T15:17:31.554Z,20.04
2018-09-29T15:20:00.564Z,20.05
2018-09-29T15:22:29.576Z,19.96
2018-09-29T15:24:58.591Z,19.92
2018-09-29T15:27:27.482Z,20.00
2018-09-29T15:29:56.481Z,20.02
2018-09-29T15:32:25.380Z,19.98
2018-09-29T15:34:54.306Z,19.92
2018-09-29T15:37:24.247Z,20.00
2018-09-29T15:39:53.179Z,19.83
2018-09-29T15:42:22.220Z,19.77
2018-09-29T15:44:51.914Z,19.64
2018-09-29T15:47:20.841Z,19.57
2018-09-29T15:49:49.731Z,19.42
2018-09-29T15:52:18.683Z,19.20
2018-09-29T15:54:47.716Z,19.28
2018-09-29T15:57:16.823Z,19.24
2018-09-29T15:59:45.785Z,18.97
2018-09-29T16:02:14.882Z,18.92
2018-09-29T16:04:48.235Z,18.76
2018-09-29T16:07:17.296Z,18.66
2018-09-29T16:09:46.431Z,18.43
2018-09-29T16:12:17.803Z,18.35
2018-09-29T16:14:46.913Z,18.18
2018-09-29T16:17:16.002Z,18.26
2018-09-29T16:19:46.802Z,18.30
2018-09-29T16:22:15.837Z,18.22
2018-09-29T16:24:47.070Z,18.01
2018-09-29T16:33:24.051Z,17.88
2018-09-29T16:36:03.617Z,17.77
2018-09-29T16:38:35.271Z,17.64
2018-09-29T16:41:05.641Z,17.77
2018-09-29T16:43:36.515Z,17.60
2018-09-29T16:46:11.694Z,17.62
2018-09-29T16:48:41.464Z,17.45
2018-09-29T16:51:10.471Z,17.55
2018-09-29T16:53:39.504Z,17.38
2018-09-29T16:56:13.386Z,17.48
2018-09-29T16:58:42.548Z,17.51
2018-09-29T17:01:15.492Z,17.57
2018-09-29T17:03:47.218Z,17.62
2018-09-29T17:09:00.278Z,17.35
2018-09-29T17:11:29.506Z,17.47
2018-09-29T17:13:58.479Z,17.22
2018-09-29T17:16:27.465Z,17.33
2018-09-29T17:18:56.440Z,17.34
2018-09-29T17:21:25.534Z,17.29
2018-09-29T17:23:54.338Z,17.36
2018-09-29T17:26:23.301Z,17.46
2018-09-29T17:28:53.897Z,17.52
2018-09-29T17:31:22.912Z,17.42
2018-09-29T17:33:55.588Z,17.25
2018-09-29T17:36:36.092Z,17.03
2018-09-29T17:39:10.074Z,17.05
2018-09-29T17:41:39.540Z,16.93
2018-09-29T17:44:17.208Z,17.11
2018-09-29T17:46:46.235Z,16.79
2018-09-29T17:49:15.396Z,16.83
2018-09-29T17:51:44.426Z,16.84
2018-09-29T17:54:14.903Z,16.87
2018-09-29T17:56:43.975Z,16.84
2018-09-29T17:59:15.737Z,16.63
2018-09-29T18:01:45.875Z,16.40
2018-09-29T18:04:15.902Z,16.57
2018-09-29T18:24:24.167Z,16.31
2018-09-29T18:26:53.685Z,16.12
2018-09-29T18:29:22.677Z,16.05
2018-09-29T18:31:52.539Z,16.33
2018-09-29T18:34:22.346Z,15.96
2018-09-29T18:36:51.305Z,16.11
2018-09-29T18:39:20.440Z,16.18
2018-09-29T18:41:49.578Z,16.19
2018-09-29T18:44:18.531Z,15.96
2018-09-29T18:46:47.509Z,15.95
2018-09-29T18:49:16.483Z,16.00
2018-09-29T18:51:46.116Z,16.12
2018-09-29T18:54:15.031Z,16.08
2018-09-29T18:56:44.033Z,16.14
2018-09-29T18:59:13.008Z,16.11
2018-09-29T19:01:42.102Z,16.08
2018-09-29T19:04:11.022Z,16.09
2018-09-29T19:06:40.028Z,16.21
2018-09-29T19:09:10.936Z,15.81
2018-09-29T19:11:39.875Z,15.49
2018-09-29T19:14:08.872Z,15.62
2018-09-29T19:16:44.895Z,15.47
2018-09-29T19:19:13.836Z,15.44
2018-09-29T19:21:42.752Z,15.40
2018-09-29T19:24:11.779Z,15.61
2018-09-29T19:26:40.767Z,15.72
2018-09-29T19:29:09.695Z,15.89
2018-09-29T19:31:38.653Z,15.83
2018-09-29T19:34:07.608Z,15.75
2018-09-29T19:36:36.837Z,15.69
2018-09-29T19:39:07.296Z,15.82
2018-09-29T19:41:36.357Z,15.91
2018-09-29T19:44:05.362Z,16.04
2018-09-29T19:46:34.313Z,16.15
2018-09-29T19:49:03.248Z,16.19
2018-09-29T19:51:32.283Z,16.29
2018-09-29T19:54:04.878Z,16.34
2018-09-29T19:56:34.822Z,16.33
2018-09-29T19:59:03.808Z,16.39
2018-09-29T20:01:32.784Z,16.38
2018-09-29T20:04:01.821Z,16.40
2018-09-29T20:06:30.799Z,16.37
2018-09-29T20:08:59.768Z,15.90
2018-09-29T20:11:28.744Z,15.77
2018-09-29T20:13:57.731Z,15.47
2018-09-29T20:16:26.778Z,15.77
2018-09-29T20:18:55.735Z,15.69
2018-09-29T20:21:24.755Z,15.67
2018-09-29T20:23:53.717Z,15.77
2018-09-29T20:26:22.667Z,15.85
2018-09-29T20:28:51.587Z,15.73
2018-09-29T20:31:20.535Z,15.80
2018-09-29T20:33:49.488Z,15.72
2018-09-29T20:36:18.407Z,15.78
2018-09-29T20:38:47.351Z,15.81
2018-09-29T20:41:16.302Z,15.83
2018-09-29T20:43:45.307Z,15.85
2018-09-29T20:46:14.253Z,15.86
2018-09-29T20:48:43.196Z,15.85
2018-09-29T20:51:12.171Z,15.88
2018-09-29T20:53:41.111Z,15.89
2018-09-29T20:56:10.103Z,15.88
2018-09-29T20:58:39.028Z,15.87
2018-09-29T21:01:08.008Z,15.83
2018-09-29T21:03:36.975Z,15.63
2018-09-29T21:06:05.985Z,15.62
2018-09-29T21:08:34.956Z,15.67
2018-09-29T21:11:03.917Z,15.68
2018-09-29T21:13:33.580Z,15.68
2018-09-29T21:16:02.495Z,15.71
2018-09-29T21:18:31.710Z,15.75
2018-09-29T21:21:00.995Z,15.76
2018-09-29T21:23:29.964Z,15.78
2018-09-29T21:25:58.903Z,15.70
2018-09-29T21:28:27.914Z,15.69
2018-09-29T21:30:56.864Z,15.67
2018-09-29T21:33:25.804Z,15.65
2018-09-29T21:35:54.758Z,15.59
2018-09-29T21:38:23.712Z,15.49
2018-09-29T21:40:52.671Z,15.39
2018-09-29T21:43:21.614Z,15.27
2018-09-29T21:45:50.592Z,15.17
2018-09-29T21:48:19.494Z,15.09
2018-09-29T21:50:48.782Z,15.03
2018-09-29T21:53:17.711Z,15.03
2018-09-29T21:55:46.619Z,15.05
2018-09-29T21:58:15.668Z,15.03
2018-09-29T22:00:45.543Z,15.05
2018-09-29T22:03:15.938Z,15.00
2018-09-29T22:05:45.666Z,15.00
2018-09-29T22:08:15.003Z,14.97
2018-09-29T22:10:44.487Z,14.96
2018-09-29T22:13:13.442Z,14.95
2018-09-29T22:15:42.455Z,14.97
2018-09-29T22:18:11.401Z,14.95
2018-09-29T22:20:40.363Z,14.91
2018-09-29T22:23:09.355Z,14.81
2018-09-29T22:25:39.526Z,14.79
2018-09-29T22:28:08.439Z,14.78
2018-09-29T22:30:37.388Z,14.77
2018-09-29T22:33:06.598Z,14.81
2018-09-29T22:35:35.550Z,14.88
2018-09-29T22:38:04.456Z,14.93
2018-09-29T22:40:33.386Z,14.90
2018-09-29T22:43:02.331Z,14.92
2018-09-29T22:45:31.317Z,14.93
2018-09-29T22:48:00.236Z,14.89
2018-09-29T22:50:29.147Z,14.93
2018-09-29T22:52:58.204Z,14.94
2018-09-29T22:55:27.107Z,14.91
2018-09-29T22:57:56.120Z,14.89
2018-09-29T23:00:25.084Z,14.90
2018-09-29T23:02:54.039Z,14.93
2018-09-29T23:05:23.065Z,14.93
2018-09-29T23:07:52.079Z,14.93
2018-09-29T23:10:21.073Z,14.93
2018-09-29T23:12:50.043Z,14.90
2018-09-29T23:15:19.684Z,14.93
2018-09-29T23:17:49.315Z,14.95
2018-09-29T23:20:18.376Z,15.00
2018-09-29T23:22:49.624Z,14.91
2018-09-29T23:25:19.334Z,14.97
2018-09-29T23:27:48.331Z,15.01
2018-09-29T23:30:17.972Z,15.04
2018-09-29T23:32:46.909Z,15.08
2018-09-29T23:35:15.840Z,15.06
2018-09-29T23:37:44.801Z,15.06
2018-09-29T23:40:13.802Z,15.09
2018-09-29T23:42:42.855Z,15.11
2018-09-29T23:45:11.809Z,15.11
2018-09-29T23:47:40.787Z,15.15
2018-09-29T23:50:09.772Z,15.17
2018-09-29T23:52:38.735Z,15.18
2018-09-29T23:55:07.793Z,14.88
2018-09-29T23:57:36.825Z,14.82
